createdAt,value
2017-07-02T00:00:28.361Z,4.70
2017-07-02T00:02:56.653Z,5.55
2017-07-02T00:05:24.942Z,5.12
2017-07-02T00:07:52.489Z,5.12
2017-07-02T00:10:20.015Z,5.68
2017-07-02T00:12:47.548Z,5.95
2017-07-02T00:15:15.069Z,5.35
2017-07-02T00:17:42.623Z,6.57
2017-07-02T00:20:10.204Z,6.65
2017-07-02T00:22:37.704Z,7.60
2017-07-02T00:25:05.206Z,5.90
2017-07-02T00:27:32.981Z,6.28
2017-07-02T00:30:00.744Z,7.03
2017-07-02T00:32:28.265Z,7.20
2017-07-02T00:34:55.770Z,7.43
2017-07-02T00:37:23.395Z,6.80
2017-07-02T00:39:50.893Z,7.43
2017-07-02T00:42:18.508Z,7.05
2017-07-02T00:44:46.029Z,7.55
2017-07-02T00:47:13.606Z,7.55
2017-07-02T00:49:41.413Z,6.60
2017-07-02T00:52:08.911Z,5.85
2017-07-02T00:54:37.201Z,6.05
2017-07-02T00:57:05.824Z,6.85
2017-07-02T00:59:34.049Z,6.10
2017-07-02T01:02:02.340Z,5.65
2017-07-02T01:04:29.842Z,4.45
2017-07-02T01:06:57.692Z,4.28
2017-07-02T01:09:25.462Z,4.20
2017-07-02T01:11:53.010Z,5.00
2017-07-02T01:14:20.521Z,4.95
2017-07-02T01:16:48.111Z,5.30
2017-07-02T01:19:15.629Z,4.70
2017-07-02T01:21:43.968Z,5.05
2017-07-02T01:24:11.519Z,5.22
2017-07-02T01:26:39.093Z,4.80
2017-07-02T01:29:06.665Z,5.10
2017-07-02T01:31:34.169Z,5.95
2017-07-02T01:34:01.744Z,6.15
2017-07-02T01:36:29.241Z,6.62
2017-07-02T01:38:56.760Z,6.37
2017-07-02T01:41:24.276Z,6.12
2017-07-02T01:43:52.625Z,7.70
2017-07-02T01:46:20.157Z,6.87
2017-07-02T01:48:47.762Z,7.20
2017-07-02T01:51:15.312Z,6.15
2017-07-02T01:53:43.576Z,7.50
2017-07-02T01:56:11.096Z,7.53
2017-07-02T01:58:38.594Z,7.53
2017-07-02T02:01:18.018Z,8.38
2017-07-02T02:03:45.550Z,8.60
2017-07-02T02:06:13.100Z,9.00
2017-07-02T02:08:40.609Z,9.13
2017-07-02T02:11:08.892Z,8.05
2017-07-02T02:13:37.415Z,7.35
2017-07-02T02:16:04.941Z,8.93
2017-07-02T02:18:32.472Z,9.05
2017-07-02T02:21:00.097Z,9.20
2017-07-02T02:23:27.892Z,10.23
2017-07-02T02:25:56.210Z,9.25
2017-07-02T02:28:23.756Z,9.85
2017-07-02T02:30:51.267Z,10.52
2017-07-02T02:33:19.108Z,9.20
2017-07-02T02:35:46.635Z,8.45
2017-07-02T02:38:14.198Z,8.63
2017-07-02T02:40:41.696Z,8.95
2017-07-02T02:43:09.277Z,8.45
2017-07-02T02:45:37.595Z,8.15
2017-07-02T02:48:05.199Z,9.85
2017-07-02T02:50:32.741Z,8.57
2017-07-02T02:53:00.305Z,8.80
2017-07-02T02:55:28.632Z,9.25
2017-07-02T02:57:56.418Z,10.43
2017-07-02T03:00:24.285Z,11.00
2017-07-02T03:02:51.866Z,11.80
2017-07-02T03:05:19.398Z,8.15
2017-07-02T03:07:46.914Z,11.27
2017-07-02T03:10:14.488Z,9.57
2017-07-02T03:12:42.006Z,8.07
2017-07-02T03:15:11.436Z,10.75
2017-07-02T03:17:38.956Z,9.90
2017-07-02T03:20:06.465Z,8.93
2017-07-02T03:22:34.034Z,7.68
2017-07-02T03:25:01.578Z,8.60
2017-07-02T03:27:29.104Z,8.35
2017-07-02T03:29:57.377Z,9.18
2017-07-02T03:32:25.697Z,8.25
2017-07-02T03:34:53.204Z,8.13
2017-07-02T03:37:20.737Z,9.20
2017-07-02T03:39:48.241Z,8.35
2017-07-02T03:42:15.830Z,7.90
2017-07-02T03:44:43.413Z,8.05
2017-07-02T03:47:11.298Z,8.38
2017-07-02T03:49:39.609Z,8.50
2017-07-02T03:52:07.120Z,8.05
2017-07-02T03:54:34.949Z,7.80
2017-07-02T03:57:02.815Z,8.18
2017-07-02T03:59:30.332Z,7.80
2017-07-02T04:01:57.833Z,8.98
2017-07-02T04:04:25.689Z,8.18
2017-07-02T04:06:53.189Z,7.75
2017-07-02T04:09:21.521Z,10.20
2017-07-02T04:11:49.088Z,9.25
2017-07-02T04:14:16.596Z,9.67
2017-07-02T04:16:44.909Z,8.75
2017-07-02T04:19:12.422Z,10.07
2017-07-02T04:21:40.772Z,9.50
2017-07-02T04:24:08.269Z,8.70
2017-07-02T04:26:35.837Z,9.60
2017-07-02T04:29:03.622Z,9.68
2017-07-02T04:31:31.148Z,9.50
2017-07-02T04:33:58.656Z,9.65
2017-07-02T04:36:26.157Z,8.43
2017-07-02T04:38:53.684Z,10.00
2017-07-02T04:41:21.193Z,11.02
2017-07-02T04:43:48.728Z,10.70
2017-07-02T04:46:16.234Z,9.30
2017-07-02T04:48:43.788Z,9.82
2017-07-02T04:51:11.364Z,8.70
2017-07-02T04:53:38.892Z,9.70
2017-07-02T04:56:06.451Z,9.77
2017-07-02T04:58:34.001Z,9.13
2017-07-02T05:01:01.558Z,10.57
2017-07-02T05:03:29.064Z,8.73
2017-07-02T05:05:57.646Z,8.43
2017-07-02T05:08:25.966Z,7.53
2017-07-02T05:10:53.495Z,8.75
2017-07-02T05:13:21.012Z,8.10
2017-07-02T05:15:48.553Z,7.90
2017-07-02T05:18:16.370Z,9.18
2017-07-02T05:20:43.897Z,8.90
2017-07-02T05:23:11.397Z,8.25
2017-07-02T05:25:38.973Z,9.25
2017-07-02T05:28:06.509Z,7.20
2017-07-02T05:30:34.324Z,8.30
2017-07-02T05:33:01.845Z,7.05
2017-07-02T05:35:29.353Z,7.50
2017-07-02T05:37:57.178Z,6.93
2017-07-02T05:40:24.736Z,8.48
2017-07-02T05:42:52.266Z,7.35
2017-07-02T05:45:19.805Z,7.37
2017-07-02T05:47:48.105Z,6.87
2017-07-02T05:50:15.837Z,6.97
2017-07-02T05:52:44.137Z,7.25
2017-07-02T05:55:12.437Z,7.12
2017-07-02T05:57:39.936Z,7.15
2017-07-02T06:00:08.242Z,7.55
2017-07-02T06:02:35.772Z,6.20
2017-07-02T06:05:03.325Z,7.10
2017-07-02T06:07:31.656Z,6.90
2017-07-02T06:09:59.177Z,6.57
2017-07-02T06:12:26.725Z,6.28
2017-07-02T06:14:55.020Z,6.87
2017-07-02T06:17:22.582Z,6.68
2017-07-02T06:19:50.132Z,6.05
2017-07-02T06:22:18.025Z,6.22
2017-07-02T06:24:45.586Z,6.43
2017-07-02T06:27:13.178Z,5.60
2017-07-02T06:29:40.687Z,5.97
2017-07-02T06:32:08.212Z,5.55
2017-07-02T06:34:36.832Z,5.20
2017-07-02T06:37:04.357Z,5.50
2017-07-02T06:39:32.057Z,5.25
2017-07-02T06:41:59.583Z,5.40
2017-07-02T06:44:27.112Z,5.40
2017-07-02T06:46:55.749Z,5.70
2017-07-02T06:49:23.321Z,5.10
2017-07-02T06:51:50.935Z,5.60
2017-07-02T06:54:19.095Z,5.40
2017-07-02T06:56:47.380Z,4.57
2017-07-02T06:59:14.914Z,4.87
2017-07-02T07:01:43.498Z,4.57
2017-07-02T07:04:11.822Z,4.90
2017-07-02T07:06:39.321Z,4.55
2017-07-02T07:09:06.885Z,5.20
2017-07-02T07:11:35.224Z,4.62
2017-07-02T07:14:02.721Z,4.90
2017-07-02T07:16:31.352Z,5.62
2017-07-02T07:18:58.850Z,5.00
2017-07-02T07:21:26.443Z,4.68
2017-07-02T07:23:54.032Z,4.68
2017-07-02T07:26:21.576Z,4.35
2017-07-02T07:28:49.121Z,4.37
2017-07-02T07:31:16.646Z,5.03
2017-07-02T07:33:44.919Z,4.30
2017-07-02T07:36:12.736Z,4.45
2017-07-02T07:38:40.301Z,4.62
2017-07-02T07:41:07.833Z,4.80
2017-07-02T07:43:35.387Z,4.20
2017-07-02T07:46:02.901Z,4.47
2017-07-02T07:48:30.456Z,3.83
2017-07-02T07:50:58.824Z,4.70
2017-07-02T07:53:26.661Z,4.32
2017-07-02T07:55:54.181Z,5.47
2017-07-02T07:58:21.704Z,4.30
2017-07-02T08:00:49.244Z,4.40
2017-07-02T08:03:16.769Z,5.28
2017-07-02T08:05:44.313Z,5.32
2017-07-02T08:08:12.110Z,4.60
2017-07-02T08:10:39.676Z,4.50
2017-07-02T08:13:07.486Z,6.62
2017-07-02T08:15:35.772Z,4.30
2017-07-02T08:18:03.269Z,4.68
2017-07-02T08:20:30.813Z,3.87
2017-07-02T08:22:58.317Z,4.80
2017-07-02T08:25:26.069Z,4.97
2017-07-02T08:27:53.620Z,4.40
2017-07-02T08:30:21.187Z,4.03
2017-07-02T08:32:49.017Z,4.72
2017-07-02T08:35:16.785Z,4.40
2017-07-02T08:37:44.558Z,4.60
2017-07-02T08:40:12.860Z,3.95
2017-07-02T08:42:42.441Z,4.70
2017-07-02T08:45:09.982Z,5.40
2017-07-02T08:47:37.579Z,4.20
2017-07-02T08:50:07.550Z,4.00
2017-07-02T08:52:35.164Z,3.25
2017-07-02T08:55:03.522Z,3.85
2017-07-02T08:57:31.031Z,3.85
2017-07-02T08:59:58.561Z,3.97
2017-07-02T09:02:26.066Z,3.53
2017-07-02T09:04:54.007Z,4.12
2017-07-02T09:07:21.517Z,3.72
2017-07-02T09:09:49.825Z,3.72
2017-07-02T09:12:17.385Z,3.72
2017-07-02T09:14:44.894Z,3.90
2017-07-02T09:17:12.468Z,3.73
2017-07-02T09:19:40.290Z,4.15
2017-07-02T09:22:08.394Z,3.50
2017-07-02T09:24:38.475Z,3.50
2017-07-02T09:27:06.253Z,3.72
2017-07-02T09:29:33.908Z,3.00
2017-07-02T09:32:01.461Z,3.08
2017-07-02T09:34:29.036Z,3.40
2017-07-02T09:36:56.767Z,4.30
2017-07-02T09:39:25.527Z,3.70
2017-07-02T09:41:53.070Z,3.97
2017-07-02T09:44:21.683Z,4.10
2017-07-02T09:46:49.261Z,3.37
2017-07-02T09:49:16.781Z,4.03
2017-07-02T09:51:44.280Z,3.22
2017-07-02T09:54:11.860Z,3.75
2017-07-02T09:56:39.381Z,3.80
2017-07-02T09:59:06.880Z,4.32
2017-07-02T10:01:34.428Z,4.05
2017-07-02T10:04:01.941Z,3.70
2017-07-02T10:06:29.717Z,2.72
2017-07-02T10:08:57.236Z,3.20
2017-07-02T10:11:25.037Z,3.20
2017-07-02T10:13:52.976Z,3.20
2017-07-02T10:16:20.854Z,2.97
2017-07-02T10:18:48.349Z,3.72
2017-07-02T10:21:15.850Z,3.33
2017-07-02T10:23:43.374Z,4.05
2017-07-02T10:26:10.902Z,3.55
2017-07-02T10:28:41.174Z,3.65
2017-07-02T10:31:11.102Z,3.22
2017-07-02T10:33:39.628Z,3.28
2017-07-02T10:36:07.154Z,3.33
2017-07-02T10:38:35.033Z,3.30
2017-07-02T10:41:02.549Z,3.15
2017-07-02T10:43:30.075Z,2.80
2017-07-02T10:45:57.656Z,3.70
2017-07-02T10:48:25.955Z,3.30
2017-07-02T10:50:53.572Z,2.90
2017-07-02T10:53:21.090Z,3.40
2017-07-02T10:55:48.653Z,4.05
2017-07-02T10:58:16.154Z,2.65
2017-07-02T11:00:44.444Z,3.10
2017-07-02T11:03:12.296Z,3.50
2017-07-02T11:05:40.835Z,2.80
2017-07-02T11:08:08.360Z,3.20
2017-07-02T11:10:40.037Z,2.90
2017-07-02T11:13:07.604Z,3.70
2017-07-02T11:15:35.527Z,3.20
2017-07-02T11:18:03.049Z,3.53
2017-07-02T11:20:30.611Z,3.12
2017-07-02T11:22:58.197Z,3.22
2017-07-02T11:25:25.744Z,2.80
2017-07-02T11:27:53.273Z,3.00
2017-07-02T11:30:20.796Z,3.62
2017-07-02T11:32:48.297Z,2.87
2017-07-02T11:35:15.895Z,3.17
2017-07-02T11:37:43.786Z,3.45
2017-07-02T11:40:12.665Z,2.47
2017-07-02T11:42:40.247Z,3.03
2017-07-02T11:45:07.837Z,3.10
2017-07-02T11:47:35.468Z,3.33
2017-07-02T11:50:03.561Z,3.20
2017-07-02T11:52:32.847Z,3.20
2017-07-02T11:55:02.041Z,2.75
2017-07-02T11:57:31.235Z,3.90
2017-07-02T11:59:58.802Z,3.00
2017-07-02T12:02:27.308Z,3.25
2017-07-02T12:04:55.861Z,3.20
2017-07-02T12:07:24.289Z,3.15
2017-07-02T12:09:52.093Z,3.35
2017-07-02T12:12:19.775Z,4.00
2017-07-02T12:14:47.341Z,3.72
2017-07-02T12:17:15.774Z,2.85
2017-07-02T12:19:44.076Z,3.00
2017-07-02T12:22:12.251Z,3.12
2017-07-02T12:24:40.042Z,3.40
2017-07-02T12:27:07.841Z,3.55
2017-07-02T12:29:35.591Z,3.22
2017-07-02T12:32:03.486Z,3.53
2017-07-02T12:34:31.321Z,2.60
2017-07-02T12:36:59.110Z,3.55
2017-07-02T12:39:27.673Z,3.05
2017-07-02T12:41:55.436Z,2.30
2017-07-02T12:44:23.542Z,2.90
2017-07-02T12:46:51.097Z,3.12
2017-07-02T12:49:18.827Z,3.40
2017-07-02T12:51:46.601Z,3.25
2017-07-02T12:54:14.353Z,3.15
2017-07-02T12:56:42.077Z,2.85
2017-07-02T12:59:09.780Z,3.10
2017-07-02T13:01:38.606Z,3.20
2017-07-02T13:04:06.375Z,3.80
2017-07-02T13:06:33.941Z,3.58
2017-07-02T13:09:01.495Z,3.30
2017-07-02T13:11:29.820Z,3.80
2017-07-02T13:13:57.342Z,4.80
2017-07-02T13:16:24.840Z,3.97
2017-07-02T13:18:52.368Z,3.87
2017-07-02T13:21:19.865Z,3.20
2017-07-02T13:23:47.421Z,3.80
2017-07-02T13:26:15.157Z,3.60
2017-07-02T13:28:42.706Z,3.95
2017-07-02T13:31:10.265Z,4.03
2017-07-02T13:33:38.033Z,3.90
2017-07-02T13:36:05.568Z,3.45
2017-07-02T13:38:33.117Z,4.20
2017-07-02T13:41:00.916Z,3.50
2017-07-02T13:43:28.414Z,4.12
2017-07-02T13:45:56.716Z,3.95
2017-07-02T13:48:24.293Z,3.90
2017-07-02T13:50:51.845Z,3.95
2017-07-02T13:53:20.065Z,4.05
2017-07-02T13:55:48.345Z,3.87
2017-07-02T13:58:15.902Z,3.17
2017-07-02T14:00:44.650Z,3.22
2017-07-02T14:03:12.169Z,3.42
2017-07-02T14:05:39.705Z,4.03
2017-07-02T14:08:07.234Z,4.00
2017-07-02T14:10:34.982Z,4.10
2017-07-02T14:13:02.733Z,4.20
2017-07-02T14:15:30.508Z,4.20
2017-07-02T14:17:58.090Z,3.50
2017-07-02T14:20:25.637Z,4.18
2017-07-02T14:22:53.360Z,4.20
2017-07-02T14:25:21.145Z,3.37
2017-07-02T14:27:48.701Z,3.78
2017-07-02T14:30:16.485Z,3.53
2017-07-02T14:32:43.990Z,3.60
2017-07-02T14:35:11.516Z,4.15
2017-07-02T14:37:39.050Z,3.70
2017-07-02T14:40:06.602Z,3.95
2017-07-02T14:42:34.178Z,4.05
2017-07-02T14:45:01.724Z,3.78
2017-07-02T14:47:29.468Z,3.62
2017-07-02T14:49:57.023Z,4.65
2017-07-02T14:52:24.603Z,3.65
2017-07-02T14:54:52.106Z,4.03
2017-07-02T14:57:19.905Z,3.05
2017-07-02T14:59:47.432Z,3.30
2017-07-02T15:02:15.869Z,2.80
2017-07-02T15:04:43.395Z,2.70
2017-07-02T15:07:10.917Z,3.47
2017-07-02T15:09:38.421Z,3.00
2017-07-02T15:12:06.296Z,3.00
2017-07-02T15:14:33.797Z,2.50
2017-07-02T15:17:01.295Z,3.30
2017-07-02T15:19:29.153Z,2.50
2017-07-02T15:21:57.025Z,3.00
2017-07-02T15:24:24.625Z,3.00
2017-07-02T15:26:53.146Z,2.87
2017-07-02T15:29:20.791Z,3.30
2017-07-02T15:31:48.319Z,2.95
2017-07-02T15:34:15.857Z,3.10
2017-07-02T15:36:43.427Z,2.55
2017-07-02T15:39:11.761Z,3.30
2017-07-02T15:41:39.261Z,3.50
2017-07-02T15:44:07.534Z,3.10
2017-07-02T15:46:35.833Z,3.22
2017-07-02T15:49:03.366Z,2.85
2017-07-02T15:51:31.900Z,3.30
2017-07-02T15:53:59.460Z,2.87
2017-07-02T15:56:26.981Z,2.70
2017-07-02T15:58:54.478Z,2.97
2017-07-02T16:01:22.074Z,2.70
2017-07-02T16:03:49.913Z,2.62
2017-07-02T16:06:17.441Z,3.20
2017-07-02T16:08:45.021Z,2.70
2017-07-02T16:11:12.793Z,2.87
2017-07-02T16:13:40.400Z,2.40
2017-07-02T16:16:08.208Z,2.25
2017-07-02T16:18:35.729Z,2.70
2017-07-02T16:21:03.518Z,2.28
2017-07-02T16:23:32.444Z,2.90
2017-07-02T16:26:01.292Z,2.30
2017-07-02T16:28:30.218Z,2.80
2017-07-02T16:30:59.093Z,2.80
2017-07-02T16:33:28.278Z,3.00
2017-07-02T16:35:57.156Z,3.15
2017-07-02T16:38:26.028Z,2.72
2017-07-02T16:40:54.900Z,2.70
2017-07-02T16:43:23.785Z,2.83
2017-07-02T16:45:52.673Z,3.00
2017-07-02T16:48:21.189Z,3.15
2017-07-02T16:50:50.177Z,3.25
2017-07-02T16:53:17.695Z,3.10
2017-07-02T16:55:45.257Z,3.22
2017-07-02T16:58:14.133Z,3.22
2017-07-02T17:00:43.448Z,3.42
2017-07-02T17:03:12.340Z,2.92
2017-07-02T17:05:41.478Z,3.60
2017-07-02T17:08:10.360Z,3.25
2017-07-02T17:10:39.236Z,3.17
2017-07-02T17:13:06.804Z,3.60
2017-07-02T17:15:34.560Z,3.10
2017-07-02T17:18:02.114Z,3.33
2017-07-02T17:20:29.640Z,3.80
2017-07-02T17:22:57.169Z,3.90
2017-07-02T17:25:24.669Z,4.22
2017-07-02T17:27:52.425Z,3.95
2017-07-02T17:30:20.318Z,4.15
2017-07-02T17:32:47.822Z,4.25
2017-07-02T17:35:17.080Z,4.55
2017-07-02T17:37:45.967Z,3.72
2017-07-02T17:40:15.072Z,3.97
2017-07-02T17:42:43.959Z,4.47
2017-07-02T17:45:12.852Z,4.80
2017-07-02T17:47:41.720Z,4.55
2017-07-02T17:50:10.628Z,4.05
2017-07-02T17:52:39.527Z,5.15
2017-07-02T17:55:08.472Z,4.93
2017-07-02T17:57:37.334Z,5.05
2017-07-02T18:00:06.283Z,5.50
2017-07-02T18:02:35.152Z,5.25
2017-07-02T18:05:04.259Z,5.55
2017-07-02T18:07:33.227Z,5.93
2017-07-02T18:10:02.075Z,5.45
2017-07-02T18:12:30.948Z,5.57
2017-07-02T18:14:59.859Z,5.35
2017-07-02T18:17:28.769Z,5.53
2017-07-02T18:19:56.552Z,6.30
2017-07-02T18:22:24.416Z,6.50
2017-07-02T18:24:51.946Z,6.75
2017-07-02T18:27:19.541Z,6.80
2017-07-02T18:29:47.037Z,7.15
2017-07-02T18:32:15.313Z,7.12
2017-07-02T18:34:43.629Z,6.68
2017-07-02T18:37:11.157Z,5.22
2017-07-02T18:39:39.837Z,6.00
2017-07-02T18:42:08.096Z,6.07
2017-07-02T18:44:36.418Z,6.47
2017-07-02T18:47:03.981Z,6.00
2017-07-02T18:49:31.534Z,7.43
2017-07-02T18:51:59.035Z,7.30
2017-07-02T18:54:26.605Z,8.77
2017-07-02T18:56:54.881Z,7.57
2017-07-02T18:59:23.158Z,8.23
2017-07-02T19:01:51.496Z,9.63
2017-07-02T19:04:19.249Z,8.95
2017-07-02T19:06:47.069Z,8.60
2017-07-02T19:09:14.605Z,8.93
2017-07-02T19:11:42.176Z,8.00
2017-07-02T19:14:10.449Z,8.40
2017-07-02T19:16:38.004Z,8.38
2017-07-02T19:19:06.655Z,8.25
2017-07-02T19:21:34.218Z,7.20
2017-07-02T19:24:01.761Z,7.60
2017-07-02T19:26:29.275Z,7.75
2017-07-02T19:28:56.861Z,8.88
2017-07-02T19:31:24.393Z,7.97
2017-07-02T19:33:52.185Z,8.30
2017-07-02T19:36:19.681Z,7.47
2017-07-02T19:38:47.213Z,7.30
2017-07-02T19:41:14.709Z,6.90
2017-07-02T19:43:43.038Z,6.85
2017-07-02T19:46:10.897Z,6.12
2017-07-02T19:48:38.761Z,5.57
2017-07-02T19:51:06.260Z,6.10
2017-07-02T19:53:34.532Z,4.93
2017-07-02T19:56:02.829Z,4.72
2017-07-02T19:58:30.336Z,5.55
2017-07-02T20:00:57.853Z,4.72
2017-07-02T20:03:25.641Z,5.47
2017-07-02T20:05:53.509Z,5.05
2017-07-02T20:08:21.008Z,5.25
2017-07-02T20:10:49.545Z,5.80
2017-07-02T20:13:17.045Z,6.07
2017-07-02T20:15:45.410Z,6.10
2017-07-02T20:18:12.914Z,5.22
2017-07-02T20:20:40.489Z,5.15
2017-07-02T20:23:08.033Z,4.68
2017-07-02T20:25:35.973Z,5.40
2017-07-02T20:28:04.311Z,6.10
2017-07-02T20:30:32.222Z,5.35
2017-07-02T20:32:59.937Z,5.55
2017-07-02T20:35:27.444Z,5.15
2017-07-02T20:37:54.969Z,5.87
2017-07-02T20:40:22.469Z,5.62
2017-07-02T20:42:49.997Z,5.93
2017-07-02T20:45:17.599Z,5.22
2017-07-02T20:47:45.105Z,6.00
2017-07-02T20:50:13.717Z,5.53
2017-07-02T20:52:41.302Z,5.90
2017-07-02T20:55:08.816Z,5.60
2017-07-02T20:57:36.321Z,5.03
2017-07-02T21:00:03.944Z,4.68
2017-07-02T21:02:31.509Z,3.90
2017-07-02T21:04:59.065Z,4.80
2017-07-02T21:07:26.610Z,4.70
2017-07-02T21:09:54.171Z,5.10
2017-07-02T21:12:21.701Z,5.25
2017-07-02T21:14:49.997Z,4.57
2017-07-02T21:17:17.534Z,4.47
2017-07-02T21:19:45.883Z,5.00
2017-07-02T21:22:13.729Z,5.45
2017-07-02T21:24:41.297Z,5.97
2017-07-02T21:27:08.871Z,5.72
2017-07-02T21:29:36.372Z,5.95
2017-07-02T21:32:04.266Z,6.75
2017-07-02T21:34:31.805Z,6.93
2017-07-02T21:36:59.309Z,6.85
2017-07-02T21:39:26.899Z,8.15
2017-07-02T21:41:55.682Z,7.00
2017-07-02T21:44:23.212Z,6.90
2017-07-02T21:46:51.044Z,6.25
2017-07-02T21:49:18.613Z,8.35
2017-07-02T21:51:46.469Z,7.82
2017-07-02T21:54:14.034Z,7.95
2017-07-02T21:56:41.553Z,7.75
2017-07-02T21:59:09.085Z,8.77
2017-07-02T22:01:37.359Z,9.25
2017-07-02T22:04:05.624Z,7.97
2017-07-02T22:06:33.478Z,8.68
2017-07-02T22:09:00.977Z,8.30
2017-07-02T22:11:28.559Z,8.20
2017-07-02T22:13:56.097Z,9.25
2017-07-02T22:16:23.625Z,9.27
2017-07-02T22:18:51.130Z,8.93
2017-07-02T22:21:18.721Z,8.85
2017-07-02T22:23:46.247Z,9.85
2017-07-02T22:26:13.863Z,8.18
2017-07-02T22:28:42.132Z,9.20
2017-07-02T22:31:10.765Z,8.02
2017-07-02T22:33:38.383Z,8.40
2017-07-02T22:36:07.049Z,9.27
2017-07-02T22:38:34.583Z,8.77
2017-07-02T22:41:02.364Z,7.03
2017-07-02T22:43:29.894Z,8.63
2017-07-02T22:45:57.453Z,9.18
2017-07-02T22:48:24.948Z,7.53
2017-07-02T22:50:53.234Z,8.80
2017-07-02T22:53:20.733Z,9.02
2017-07-02T22:55:48.264Z,8.60
2017-07-02T22:58:15.774Z,8.70
2017-07-02T23:00:43.330Z,7.57
2017-07-02T23:03:10.844Z,9.57
2017-07-02T23:05:38.402Z,8.23
2017-07-02T23:08:05.970Z,8.93
2017-07-02T23:10:33.553Z,8.93
2017-07-02T23:13:01.073Z,8.77
2017-07-02T23:15:28.620Z,8.80
2017-07-02T23:17:56.169Z,8.80
2017-07-02T23:20:23.707Z,8.93
2017-07-02T23:22:52.057Z,8.00
2017-07-02T23:25:19.557Z,8.07
2017-07-02T23:27:47.142Z,9.07
2017-07-02T23:30:15.451Z,8.48
2017-07-02T23:32:43.000Z,8.88
2017-07-02T23:35:10.569Z,8.27
2017-07-02T23:37:38.072Z,8.75
2017-07-02T23:40:05.858Z,8.52
2017-07-02T23:42:33.359Z,9.05
2017-07-02T23:45:00.917Z,8.07
2017-07-02T23:47:29.233Z,8.95
2017-07-02T23:49:56.789Z,9.18
2017-07-02T23:52:24.375Z,7.78
2017-07-02T23:54:51.872Z,7.95
2017-07-02T23:57:20.189Z,8.88
2017-07-02T23:59:47.692Z,9.05
